Time;durP1;ratioP1;P1;durP2;ratioP2;P2;SDS_P1;SDS_P2;PMS_P1;PMS_P2;Temp;Humidity;BMP_temperature;BMP_pressure;BME280_temperature;BME280_humidity;BME280_pressure;Samples;Min_cycle;Max_cycle;Signal;HPM_P1;HPM_P2
2023/10/10 00:01:00;;;;;;;8.88;6.63;;;;;;;;;;5135420;27;20038;-60
2023/10/10 00:03:27;;;;;;;11.13;6.63;;;;;;;;;;5135055;27;20400;-60
2023/10/10 00:05:53;;;;;;;9.57;7.35;;;;;;;;;;5135126;27;20042;-61
2023/10/10 00:08:20;;;;;;;11.25;7.32;;;;;;;;;;5135455;27;20104;-62
2023/10/10 00:10:50;;;;;;;9.98;7.45;;;;;;;;;;5135465;27;20050;-62
2023/10/10 00:13:19;;;;;;;12.95;7.50;;;;;;;;;;5135193;27;20043;-62
2023/10/10 00:15:50;;;;;;;12.48;7.57;;;;;;;;;;5116808;27;20034;-62
2023/10/10 00:18:15;;;;;;;;;;;;;;;;;;5135703;27;20473;-62
2023/10/10 00:20:44;;;;;;;12.68;8.50;;;;;;;;;;5134728;27;19914;-62
2023/10/10 00:23:16;;;;;;;14.60;9.77;;;;;;;;;;5135268;27;20034;-62
2023/10/10 00:25:45;;;;;;;13.85;9.63;;;;;;;;;;5134837;27;20046;-62
2023/10/10 00:28:33;;;;;;;13.82;9.38;;;;;;;;;;5135011;27;20039;-70
2023/10/10 00:30:59;;;;;;;13.00;10.02;;;;;;;;;;5134984;27;20039;-70
2023/10/10 00:33:24;;;;;;;17.92;9.73;;;;;;;;;;5116341;27;20027;-70
2023/10/10 00:35:50;;;;;;;13.07;9.07;;;;;;;;;;5134796;27;20062;-69
2023/10/10 00:38:24;;;;;;;13.25;8.93;;;;;;;;;;5134871;27;20035;-66
2023/10/10 00:40:50;;;;;;;13.45;9.57;;;;;;;;;;5134340;27;20473;-66
2023/10/10 00:43:16;;;;;;;15.35;9.70;;;;;;;;;;5115964;27;20484;-66
2023/10/10 00:45:57;;;;;;;16.35;9.35;;;;;;;;;;5116146;27;20404;-69
2023/10/10 00:48:24;;;;;;;14.05;10.30;;;;;;;;;;5133921;27;20063;-61
2023/10/10 00:51:05;;;;;;;14.98;9.77;;;;;;;;;;5134676;27;20035;-60
2023/10/10 00:53:33;;;;;;;12.75;9.05;;;;;;;;;;5115874;27;20061;-69
2023/10/10 00:55:59;;;;;;;13.07;9.35;;;;;;;;;;5134642;27;20037;-68
2023/10/10 00:58:35;;;;;;;13.18;9.40;;;;;;;;;;5134511;27;20026;-68
2023/10/10 01:01:05;;;;;;;12.50;8.77;;;;;;;;;;5134187;27;20046;-68
2023/10/10 01:03:32;;;;;;;14.98;8.80;;;;;;;;;;5116462;27;20032;-68
2023/10/10 01:05:58;;;;;;;13.15;8.95;;;;;;;;;;5115804;27;20031;-67
2023/10/10 01:08:26;;;;;;;13.20;8.90;;;;;;;;;;5134248;27;20607;-67
2023/10/10 01:10:56;;;;;;;14.02;9.90;;;;;;;;;;5134558;27;20035;-67
2023/10/10 01:13:22;;;;;;;11.47;8.70;;;;;;;;;;5134362;27;20100;-67
2023/10/10 01:15:48;;;;;;;10.45;8.57;;;;;;;;;;5134242;27;20261;-60
2023/10/10 01:18:14;;;;;;;12.93;9.05;;;;;;;;;;5115021;27;20039;-59
2023/10/10 01:20:46;;;;;;;11.98;8.80;;;;;;;;;;5134160;27;20110;-59
2023/10/10 01:23:15;;;;;;;10.48;7.93;;;;;;;;;;5115822;27;20181;-59
2023/10/10 01:25:52;;;;;;;12.15;7.90;;;;;;;;;;5133907;27;20092;-59
2023/10/10 01:33:22;;;;;;;10.68;8.48;;;;;;;;;;5116647;27;20092;-64
2023/10/10 01:35:49;;;;;;;10.33;8.27;;;;;;;;;;5134751;27;20483;-65
2023/10/10 01:38:32;;;;;;;10.60;7.97;;;;;;;;;;5115213;27;20103;-64
2023/10/10 01:41:04;;;;;;;12.23;8.32;;;;;;;;;;5114689;27;20032;-65
2023/10/10 01:43:32;;;;;;;9.90;8.38;;;;;;;;;;5115389;27;20074;-65
2023/10/10 01:46:18;;;;;;;11.02;8.15;;;;;;;;;;5097942;27;20413;-65
2023/10/10 01:48:46;;;;;;;10.85;8.40;;;;;;;;;;5114769;27;20054;-58
2023/10/10 01:51:15;;;;;;;13.13;8.45;;;;;;;;;;5114436;27;20742;-59
2023/10/10 01:53:41;;;;;;;10.70;8.30;;;;;;;;;;5115159;27;20035;-58
2023/10/10 01:56:07;;;;;;;10.90;7.85;;;;;;;;;;5114236;27;20033;-59
2023/10/10 01:58:36;;;;;;;12.25;8.50;;;;;;;;;;5133421;27;20096;-61
2023/10/10 02:01:16;;;;;;;11.07;7.97;;;;;;;;;;5113898;27;20117;-69
2023/10/10 02:03:42;;;;;;;10.17;7.97;;;;;;;;;;5132780;27;20035;-69
2023/10/10 02:06:24;;;;;;;10.02;8.25;;;;;;;;;;5132533;27;20038;-68
2023/10/10 02:08:51;;;;;;;10.43;7.68;;;;;;;;;;5114399;27;20035;-69
2023/10/10 02:11:22;;;;;;;11.73;8.73;;;;;;;;;;5132153;27;20043;-70
2023/10/10 02:13:48;;;;;;;12.55;8.45;;;;;;;;;;5133135;27;20046;-59
2023/10/10 02:16:17;;;;;;;10.23;8.65;;;;;;;;;;5133029;27;20480;-68
2023/10/10 02:18:51;;;;;;;12.95;8.60;;;;;;;;;;5114544;27;20035;-67
2023/10/10 02:21:17;;;;;;;11.00;8.70;;;;;;;;;;5132186;27;20041;-59
2023/10/10 02:23:46;;;;;;;11.20;8.43;;;;;;;;;;5132311;27;20494;-59
2023/10/10 02:28:47;;;;;;;13.02;9.13;;;;;;;;;;5132634;27;20043;-61
2023/10/10 02:31:15;;;;;;;13.75;9.65;;;;;;;;;;5132471;27;20031;-61
2023/10/10 02:33:48;;;;;;;12.45;8.75;;;;;;;;;;5132051;27;20028;-60
2023/10/10 02:36:29;;;;;;;12.07;9.10;;;;;;;;;;5134090;27;20043;-60
2023/10/10 02:38:59;;;;;;;11.52;8.85;;;;;;;;;;5133841;27;20039;-59
2023/10/10 02:41:38;;;;;;;14.45;10.00;;;;;;;;;;5132633;27;20415;-69
2023/10/10 02:44:05;;;;;;;17.65;10.38;;;;;;;;;;5132354;27;20041;-67
2023/10/10 02:46:35;;;;;;;12.23;9.60;;;;;;;;;;5113993;27;20059;-59
2023/10/10 02:51:48;;;;;;;12.43;9.23;;;;;;;;;;5113755;27;20035;-69
2023/10/10 03:00:47;;;;;;;12.75;9.00;;;;;;;;;;5068282;28;20502;-67
2023/10/10 03:03:03;;;;;;;24.73;15.75;;;;;;;;;;5128219;27;20079;-68
2023/10/10 03:05:44;;;;;;;33.65;19.95;;;;;;;;;;5131529;27;20075;-68
2023/10/10 03:08:15;;;;;;;40.58;22.40;;;;;;;;;;5131970;27;20039;-68
2023/10/10 03:10:45;;;;;;;43.72;24.92;;;;;;;;;;5112837;27;20035;-66
2023/10/10 03:13:16;;;;;;;32.58;19.63;;;;;;;;;;5131709;27;20047;-68
2023/10/10 03:15:51;;;;;;;24.33;15.50;;;;;;;;;;5113444;27;20096;-60
2023/10/10 03:18:19;;;;;;;19.98;13.50;;;;;;;;;;5113446;27;20051;-66
2023/10/10 03:25:49;;;;;;;12.70;9.15;;;;;;;;;;5113235;27;20075;-60
2023/10/10 03:28:19;;;;;;;13.70;10.50;;;;;;;;;;5113367;27;20061;-60
2023/10/10 03:30:55;;;;;;;14.30;9.88;;;;;;;;;;5131900;27;20047;-61
2023/10/10 03:36:14;;;;;;;20.02;10.73;;;;;;;;;;5113101;28;20408;-60
2023/10/10 05:25:13;;;;;;;8.95;6.82;;;;;;;;;;5113086;28;20055;-69
2023/10/10 05:27:41;;;;;;;7.38;6.35;;;;;;;;;;5113723;28;20070;-68
2023/10/10 05:30:27;;;;;;;6.72;5.82;;;;;;;;;;5113994;28;20447;-68
2023/10/10 05:33:02;;;;;;;7.68;6.47;;;;;;;;;;5113938;28;20036;-68
2023/10/10 05:35:32;;;;;;;7.93;6.20;;;;;;;;;;5113322;28;20036;-68
2023/10/10 05:38:00;;;;;;;6.32;5.47;;;;;;;;;;5113330;28;20031;-68
2023/10/10 05:40:26;;;;;;;5.97;5.38;;;;;;;;;;5113919;28;20420;-69
2023/10/10 05:42:52;;;;;;;6.35;5.43;;;;;;;;;;5112409;28;20077;-68
2023/10/10 05:45:20;;;;;;;6.32;5.70;;;;;;;;;;5112231;28;20043;-68
2023/10/10 05:47:46;;;;;;;7.00;5.75;;;;;;;;;;5112874;28;20039;-68
2023/10/10 05:50:11;;;;;;;6.70;5.80;;;;;;;;;;5113049;28;20667;-68
2023/10/10 05:52:40;;;;;;;6.35;5.55;;;;;;;;;;5110994;28;20043;-68
2023/10/10 05:55:06;;;;;;;7.25;6.03;;;;;;;;;;5093108;28;20035;-68
2023/10/10 05:57:33;;;;;;;8.80;5.72;;;;;;;;;;5109416;28;20031;-62
2023/10/10 05:59:59;;;;;;;7.80;5.45;;;;;;;;;;5111079;28;20040;-68
2023/10/10 06:02:27;;;;;;;6.05;5.45;;;;;;;;;;5109476;28;20040;-68
2023/10/10 06:04:53;;;;;;;7.05;5.80;;;;;;;;;;5110363;28;20043;-68
2023/10/10 06:07:18;;;;;;;10.70;6.20;;;;;;;;;;5111169;28;20034;-68
2023/10/10 06:09:44;;;;;;;6.90;5.95;;;;;;;;;;5109691;28;20047;-68
2023/10/10 06:12:09;;;;;;;6.82;5.70;;;;;;;;;;5111159;28;20097;-68
2023/10/10 06:14:36;;;;;;;8.77;6.50;;;;;;;;;;5110689;28;20389;-62
2023/10/10 06:17:01;;;;;;;10.50;5.78;;;;;;;;;;5112159;28;20036;-62
2023/10/10 06:19:28;;;;;;;8.88;5.95;;;;;;;;;;5107597;27;20035;-62
2023/10/10 06:21:59;;;;;;;8.95;5.75;;;;;;;;;;5112397;27;20095;-62
2023/10/10 06:24:26;;;;;;;6.13;5.53;;;;;;;;;;5121842;27;20062;-62
2023/10/10 06:26:54;;;;;;;7.72;5.50;;;;;;;;;;5120529;27;20377;-68
2023/10/10 06:29:19;;;;;;;6.60;5.97;;;;;;;;;;5122632;27;20035;-67
2023/10/10 06:31:45;;;;;;;7.57;6.38;;;;;;;;;;5111726;27;20039;-67
2023/10/10 06:34:22;;;;;;;7.30;5.10;;;;;;;;;;5110716;28;20039;-67
2023/10/10 06:36:48;;;;;;;6.75;6.15;;;;;;;;;;5112114;28;20489;-67
2023/10/10 06:41:46;;;;;;;6.20;5.60;;;;;;;;;;5112036;28;20508;-67
2023/10/10 06:44:14;;;;;;;8.32;5.82;;;;;;;;;;5111871;27;20122;-66
2023/10/10 06:46:41;;;;;;;7.30;6.55;;;;;;;;;;5110147;28;20524;-67
2023/10/10 06:49:07;;;;;;;8.13;6.55;;;;;;;;;;5110847;28;20107;-66
2023/10/10 06:51:39;;;;;;;8.30;6.45;;;;;;;;;;5111951;28;20051;-66
2023/10/10 06:54:21;;;;;;;6.78;5.68;;;;;;;;;;5111883;28;20499;-67
2023/10/10 06:57:09;;;;;;;8.18;6.13;;;;;;;;;;5111779;28;20036;-67
2023/10/10 06:59:32;;;;;;;6.65;5.72;;;;;;;;;;5111347;28;20066;-66
2023/10/10 07:02:13;;;;;;;7.28;6.57;;;;;;;;;;5110493;28;20039;-66
2023/10/10 07:04:38;;;;;;;8.00;6.75;;;;;;;;;;5110327;28;20078;-66
2023/10/10 07:07:06;;;;;;;8.43;7.25;;;;;;;;;;5111607;28;20094;-66
2023/10/10 07:09:31;;;;;;;7.53;6.82;;;;;;;;;;5110359;28;20052;-66
2023/10/10 07:12:09;;;;;;;7.03;6.28;;;;;;;;;;5111012;28;20066;-66
2023/10/10 07:14:43;;;;;;;7.65;6.88;;;;;;;;;;5110529;28;20040;-67
2023/10/10 07:17:11;;;;;;;6.93;6.30;;;;;;;;;;5111739;28;20031;-66
2023/10/10 07:22:25;;;;;;;6.93;6.32;;;;;;;;;;5110386;28;20139;-66
2023/10/10 07:24:55;;;;;;;7.28;6.47;;;;;;;;;;5110741;28;20119;-66
2023/10/10 07:27:24;;;;;;;;;;;;;;;;;;5112027;28;20036;-66
2023/10/10 07:32:27;;;;;;;7.00;6.25;;;;;;;;;;5110762;28;20043;-67
2023/10/10 07:34:54;;;;;;;8.65;6.75;;;;;;;;;;5111235;28;20036;-66
2023/10/10 07:37:22;;;;;;;7.25;6.55;;;;;;;;;;5110214;28;20043;-66
2023/10/10 07:40:18;;;;;;;8.02;6.53;;;;;;;;;;5111331;28;20032;-67
2023/10/10 07:42:49;;;;;;;6.93;6.22;;;;;;;;;;5109866;28;20047;-67
2023/10/10 07:45:15;;;;;;;8.80;6.53;;;;;;;;;;5111250;28;20127;-67
2023/10/10 07:50:26;;;;;;;8.85;6.35;;;;;;;;;;5111216;28;20039;-66
2023/10/10 07:52:55;;;;;;;7.22;6.20;;;;;;;;;;5110973;28;20534;-67
2023/10/10 07:55:22;;;;;;;8.63;6.72;;;;;;;;;;5110986;28;20080;-61
2023/10/10 07:58:00;;;;;;;7.32;6.63;;;;;;;;;;5109157;28;20035;-68
2023/10/10 08:00:35;;;;;;;8.50;6.90;;;;;;;;;;5114532;28;20035;-67
2023/10/10 08:03:01;;;;;;;6.97;6.28;;;;;;;;;;5114527;28;20140;-66
2023/10/10 08:05:29;;;;;;;6.50;5.60;;;;;;;;;;5114491;28;20584;-66
2023/10/10 08:07:55;;;;;;;6.85;6.15;;;;;;;;;;5114367;28;20055;-67
2023/10/10 08:10:29;;;;;;;7.18;6.55;;;;;;;;;;5114327;28;20043;-68
2023/10/10 08:12:56;;;;;;;6.07;5.47;;;;;;;;;;5113946;28;20059;-67
2023/10/10 08:15:25;;;;;;;8.93;6.43;;;;;;;;;;5114323;28;20067;-67
2023/10/10 08:17:54;;;;;;;6.97;6.22;;;;;;;;;;5114641;28;20489;-67
2023/10/10 08:23:04;;;;;;;5.47;4.97;;;;;;;;;;5113547;28;20044;-68
2023/10/10 08:25:30;;;;;;;6.13;5.53;;;;;;;;;;5113192;28;20042;-67
2023/10/10 08:27:56;;;;;;;7.57;5.82;;;;;;;;;;5114885;28;20035;-67
2023/10/10 08:30:25;;;;;;;9.07;6.78;;;;;;;;;;5113235;28;20048;-67
2023/10/10 08:32:57;;;;;;;11.47;7.97;;;;;;;;;;5113871;28;20047;-67
2023/10/10 08:35:23;;;;;;;11.15;9.13;;;;;;;;;;5114592;27;20036;-67
2023/10/10 08:37:50;;;;;;;8.20;5.90;;;;;;;;;;5114782;28;20110;-68
2023/10/10 08:40:19;;;;;;;7.80;6.50;;;;;;;;;;5114501;28;20077;-67
2023/10/10 08:42:46;;;;;;;7.78;6.60;;;;;;;;;;5114450;28;20075;-68
2023/10/10 08:45:22;;;;;;;11.68;7.88;;;;;;;;;;5114424;28;20047;-66
2023/10/10 08:48:01;;;;;;;9.23;6.85;;;;;;;;;;5113825;28;20458;-68
2023/10/10 08:50:27;;;;;;;9.02;7.68;;;;;;;;;;5114012;28;20043;-68
2023/10/10 08:52:52;;;;;;;9.30;7.93;;;;;;;;;;5111719;28;20039;-69
2023/10/10 08:55:26;;;;;;;10.82;8.20;;;;;;;;;;5113312;28;20645;-68
2023/10/10 08:57:57;;;;;;;10.88;9.32;;;;;;;;;;5114220;28;20098;-69
2023/10/10 09:00:26;;;;;;;12.40;9.20;;;;;;;;;;5114328;28;20039;-69
2023/10/10 09:02:52;;;;;;;12.10;8.93;;;;;;;;;;5114168;28;20046;-68
2023/10/10 09:05:19;;;;;;;16.83;8.80;;;;;;;;;;5114235;28;20047;-68
2023/10/10 09:07:46;;;;;;;14.60;9.18;;;;;;;;;;5113748;28;20043;-68
2023/10/10 09:10:14;;;;;;;9.48;8.05;;;;;;;;;;5113156;28;20078;-68
2023/10/10 09:12:58;;;;;;;11.27;8.32;;;;;;;;;;5113089;28;20081;-68
2023/10/10 09:15:24;;;;;;;11.57;9.05;;;;;;;;;;5112399;28;20058;-68
2023/10/10 09:17:55;;;;;;;14.48;10.25;;;;;;;;;;5112593;28;20103;-68
2023/10/10 09:20:32;;;;;;;10.48;7.93;;;;;;;;;;5112364;28;20047;-68
2023/10/10 09:23:15;;;;;;;12.13;9.35;;;;;;;;;;5109456;28;20043;-68
2023/10/10 09:25:42;;;;;;;12.02;9.80;;;;;;;;;;5110559;28;20401;-68
2023/10/10 09:28:10;;;;;;;13.75;9.43;;;;;;;;;;5110517;28;20066;-69
2023/10/10 09:30:45;;;;;;;11.07;8.98;;;;;;;;;;5092542;28;20040;-68
2023/10/10 09:33:21;;;;;;;12.45;9.27;;;;;;;;;;5111963;28;20043;-68
2023/10/10 09:35:49;;;;;;;14.43;10.18;;;;;;;;;;5112511;28;20054;-68
2023/10/10 09:38:20;;;;;;;13.00;10.05;;;;;;;;;;5113249;28;20137;-69
2023/10/10 09:40:48;;;;;;;14.18;9.75;;;;;;;;;;5113399;28;20122;-68
2023/10/10 09:43:24;;;;;;;15.82;9.95;;;;;;;;;;5113232;28;20040;-68
2023/10/10 09:46:10;;;;;;;13.98;10.43;;;;;;;;;;5113151;28;20051;-68
2023/10/10 09:52:47;;;;;;;14.02;10.13;;;;;;;;;;5113202;28;20130;-68
2023/10/10 09:54:36;;;;;;;15.98;10.88;;;;;;;;;;5111119;28;20143;-68
2023/10/10 09:56:54;;;;;;;16.58;11.18;;;;;;;;;;5110077;28;20511;-68
2023/10/10 09:59:20;;;;;;;13.60;10.52;;;;;;;;;;5111762;28;20039;-68
2023/10/10 10:01:59;;;;;;;14.85;11.02;;;;;;;;;;5111887;28;20114;-68
2023/10/10 10:04:28;;;;;;;14.30;9.93;;;;;;;;;;5111542;28;20541;-68
2023/10/10 10:07:01;;;;;;;17.75;11.88;;;;;;;;;;5111791;28;20032;-68
2023/10/10 10:09:51;;;;;;;17.55;11.07;;;;;;;;;;5110041;28;20043;-68
2023/10/10 10:12:33;;;;;;;16.17;10.98;;;;;;;;;;5111462;28;20039;-68
2023/10/10 10:15:12;;;;;;;20.23;12.35;;;;;;;;;;5111065;28;20488;-68
2023/10/10 10:17:47;;;;;;;18.70;11.77;;;;;;;;;;5111343;28;20043;-68
2023/10/10 10:20:22;;;;;;;21.13;13.02;;;;;;;;;;5112032;28;20505;-69
2023/10/10 10:22:52;;;;;;;18.55;11.60;;;;;;;;;;5111975;28;20074;-68
2023/10/10 10:25:25;;;;;;;15.65;11.48;;;;;;;;;;5111962;28;20043;-68
2023/10/10 10:27:59;;;;;;;19.25;11.50;;;;;;;;;;5112309;28;20039;-68
2023/10/10 10:32:54;;;;;;;12.10;9.15;;;;;;;;;;5113725;28;20039;-68
2023/10/10 10:35:24;;;;;;;14.85;11.00;;;;;;;;;;5113813;28;20092;-68
2023/10/10 10:37:54;;;;;;;17.17;10.60;;;;;;;;;;5112535;28;20043;-63
2023/10/10 10:40:24;;;;;;;16.65;10.85;;;;;;;;;;5112260;28;20488;-63
2023/10/10 10:42:53;;;;;;;16.10;11.97;;;;;;;;;;5111926;28;20506;-63
2023/10/10 10:45:34;;;;;;;12.93;8.77;;;;;;;;;;5111975;28;20273;-64
2023/10/10 10:48:04;;;;;;;15.38;11.85;;;;;;;;;;5110707;28;20434;-64
2023/10/10 10:50:40;;;;;;;15.15;11.20;;;;;;;;;;5110616;28;20039;-64
2023/10/10 10:53:08;;;;;;;16.30;10.70;;;;;;;;;;5111504;28;20100;-63
2023/10/10 10:55:40;;;;;;;16.33;11.95;;;;;;;;;;5110102;28;20031;-63
2023/10/10 10:58:07;;;;;;;17.92;11.80;;;;;;;;;;5093078;28;20485;-64
2023/10/10 11:00:56;;;;;;;14.13;9.85;;;;;;;;;;5109807;28;20035;-63
2023/10/10 11:03:23;;;;;;;16.02;10.30;;;;;;;;;;5111256;28;20048;-63
2023/10/10 11:05:53;;;;;;;14.27;9.50;;;;;;;;;;5109730;28;20087;-63
2023/10/10 11:08:45;;;;;;;19.70;12.35;;;;;;;;;;5093094;28;20126;-64
2023/10/10 11:11:23;;;;;;;15.77;10.52;;;;;;;;;;5111094;28;20117;-63
2023/10/10 11:13:49;;;;;;;13.13;9.57;;;;;;;;;;5111174;28;20071;-63
2023/10/10 11:16:15;;;;;;;15.27;8.65;;;;;;;;;;5111291;28;20039;-63
2023/10/10 11:18:41;;;;;;;9.93;6.72;;;;;;;;;;5111074;28;20458;-63
2023/10/10 11:21:11;;;;;;;11.35;8.35;;;;;;;;;;5110068;28;20032;-63
2023/10/10 11:23:41;;;;;;;13.90;9.80;;;;;;;;;;5109857;28;20089;-63
2023/10/10 11:26:08;;;;;;;15.60;10.00;;;;;;;;;;5109828;28;20731;-63
2023/10/10 11:28:37;;;;;;;13.68;9.23;;;;;;;;;;5109772;28;20495;-63
2023/10/10 11:31:07;;;;;;;14.95;8.82;;;;;;;;;;5108818;28;20096;-63
2023/10/10 11:33:46;;;;;;;11.85;8.65;;;;;;;;;;5109850;28;20046;-63
2023/10/10 11:36:29;;;;;;;11.07;8.02;;;;;;;;;;5110641;28;20173;-63
2023/10/10 11:38:56;;;;;;;10.27;7.57;;;;;;;;;;5110253;28;20044;-62
2023/10/10 11:41:29;;;;;;;14.50;9.52;;;;;;;;;;5110428;28;20129;-62
2023/10/10 11:44:01;;;;;;;16.27;11.10;;;;;;;;;;5111105;28;20440;-62
2023/10/10 11:46:27;;;;;;;13.00;9.68;;;;;;;;;;5109739;28;20043;-63
2023/10/10 11:48:54;;;;;;;13.90;9.90;;;;;;;;;;5110896;28;20044;-62
2023/10/10 11:51:35;;;;;;;10.57;8.02;;;;;;;;;;5109177;28;20035;-62
2023/10/10 11:54:01;;;;;;;12.32;8.55;;;;;;;;;;5109472;28;20054;-62
2023/10/10 11:56:26;;;;;;;13.38;8.60;;;;;;;;;;5110838;28;20035;-61
2023/10/10 11:58:52;;;;;;;16.38;10.20;;;;;;;;;;5109756;28;20020;-64
2023/10/10 12:01:47;;;;;;;15.00;10.73;;;;;;;;;;5111048;28;20040;-63
2023/10/10 12:04:20;;;;;;;9.93;7.85;;;;;;;;;;5105732;28;20027;-63
2023/10/10 12:06:47;;;;;;;13.23;8.10;;;;;;;;;;5119040;28;20038;-64
2023/10/10 12:09:19;;;;;;;16.02;9.05;;;;;;;;;;5091145;28;20056;-63
2023/10/10 12:11:45;;;;;;;12.13;7.75;;;;;;;;;;5098502;28;20055;-63
2023/10/10 12:14:12;;;;;;;11.88;8.48;;;;;;;;;;5087454;28;20544;-63
2023/10/10 12:16:39;;;;;;;11.55;8.13;;;;;;;;;;5110696;28;20051;-63
2023/10/10 12:19:05;;;;;;;11.77;8.48;;;;;;;;;;5110899;28;20050;-63
2023/10/10 12:21:31;;;;;;;15.73;9.88;;;;;;;;;;5092311;28;20469;-63
2023/10/10 12:23:57;;;;;;;12.80;8.60;;;;;;;;;;5109717;28;20032;-63
2023/10/10 12:26:25;;;;;;;12.05;8.95;;;;;;;;;;5110238;28;20042;-63
2023/10/10 12:28:53;;;;;;;12.27;8.02;;;;;;;;;;5110669;28;20030;-63
2023/10/10 12:31:21;;;;;;;11.40;7.70;;;;;;;;;;5109995;28;20039;-63
2023/10/10 12:33:48;;;;;;;12.15;6.60;;;;;;;;;;5110067;28;20110;-63
2023/10/10 12:36:15;;;;;;;11.65;7.85;;;;;;;;;;5109795;28;20020;-63
2023/10/10 12:38:41;;;;;;;7.25;5.78;;;;;;;;;;5110239;28;20381;-61
2023/10/10 12:41:10;;;;;;;10.18;7.40;;;;;;;;;;5110318;28;20044;-62
2023/10/10 12:43:37;;;;;;;7.78;5.07;;;;;;;;;;5110506;28;20550;-63
2023/10/10 12:46:04;;;;;;;11.73;6.90;;;;;;;;;;5113343;28;20067;-63
2023/10/10 12:48:31;;;;;;;10.70;7.35;;;;;;;;;;5113914;28;20038;-62
2023/10/10 12:51:00;;;;;;;9.93;7.68;;;;;;;;;;5113704;28;20050;-60
2023/10/10 12:53:30;;;;;;;7.95;5.63;;;;;;;;;;5095872;28;20044;-62
2023/10/10 12:56:01;;;;;;;7.75;5.82;;;;;;;;;;5095871;28;20123;-62
2023/10/10 12:58:26;;;;;;;;;;;;;;;;;;5110713;28;20044;-62
2023/10/10 13:00:52;;;;;;;10.07;5.43;;;;;;;;;;5093537;28;19911;-62
2023/10/10 13:03:18;;;;;;;9.88;6.22;;;;;;;;;;5075131;28;20470;-62
2023/10/10 13:05:47;;;;;;;9.35;6.40;;;;;;;;;;5091059;28;20066;-62
2023/10/10 13:08:14;;;;;;;10.93;7.45;;;;;;;;;;5074847;28;20044;-62
2023/10/10 13:10:41;;;;;;;10.85;7.20;;;;;;;;;;5111536;28;20028;-62
2023/10/10 13:13:09;;;;;;;10.73;6.55;;;;;;;;;;5114440;28;20039;-62
2023/10/10 13:15:50;;;;;;;14.63;8.20;;;;;;;;;;5095643;28;20038;-61
2023/10/10 13:18:24;;;;;;;8.65;6.18;;;;;;;;;;5094757;28;20594;-61
2023/10/10 13:20:50;;;;;;;10.73;7.03;;;;;;;;;;5113752;28;20449;-61
2023/10/10 13:23:19;;;;;;;9.13;6.47;;;;;;;;;;5113185;28;20071;-61
2023/10/10 13:25:44;;;;;;;9.32;4.95;;;;;;;;;;5112600;28;20089;-61
2023/10/10 13:28:17;;;;;;;10.00;6.15;;;;;;;;;;5113520;28;20493;-61
2023/10/10 13:30:43;;;;;;;12.45;7.00;;;;;;;;;;5095348;28;20040;-61
2023/10/10 13:33:08;;;;;;;16.15;10.02;;;;;;;;;;5113265;28;20040;-62
2023/10/10 13:35:37;;;;;;;11.15;6.97;;;;;;;;;;5113448;28;20395;-62
2023/10/10 13:38:03;;;;;;;8.38;5.97;;;;;;;;;;5094916;28;20036;-62
2023/10/10 13:40:37;;;;;;;8.23;5.32;;;;;;;;;;5095237;28;20040;-62
2023/10/10 13:43:08;;;;;;;9.30;6.22;;;;;;;;;;5112876;28;20067;-63
2023/10/10 13:45:39;;;;;;;11.52;7.90;;;;;;;;;;5113108;28;20051;-62
2023/10/10 13:48:08;;;;;;;21.10;11.85;;;;;;;;;;5077579;28;20097;-58
2023/10/10 13:50:42;;;;;;;19.38;9.80;;;;;;;;;;5077339;28;20500;-59
2023/10/10 13:53:08;;;;;;;14.07;8.23;;;;;;;;;;5112393;28;20046;-58
2023/10/10 13:55:34;;;;;;;13.20;8.40;;;;;;;;;;5112797;28;20067;-58
2023/10/10 13:57:59;;;;;;;12.25;8.05;;;;;;;;;;5094583;28;20067;-58
2023/10/10 14:00:33;;;;;;;13.60;7.43;;;;;;;;;;5094691;28;20097;-58
2023/10/10 14:03:04;;;;;;;12.20;7.03;;;;;;;;;;5112971;28;20075;-59
2023/10/10 14:05:41;;;;;;;11.82;8.48;;;;;;;;;;5112523;28;20043;-59
2023/10/10 14:08:09;;;;;;;10.45;6.93;;;;;;;;;;5093707;28;20039;-58
2023/10/10 14:10:38;;;;;;;13.20;9.98;;;;;;;;;;5112710;28;20114;-59
2023/10/10 14:13:19;;;;;;;12.55;7.97;;;;;;;;;;5111969;28;20062;-59
2023/10/10 14:15:54;;;;;;;15.93;9.15;;;;;;;;;;5094099;28;20530;-65
2023/10/10 14:18:21;;;;;;;21.02;11.75;;;;;;;;;;5112264;28;20078;-65
2023/10/10 14:20:48;;;;;;;18.33;10.90;;;;;;;;;;5092580;28;20434;-65
2023/10/10 14:23:14;;;;;;;14.75;9.07;;;;;;;;;;5112266;28;20765;-65
2023/10/10 14:25:45;;;;;;;14.57;8.38;;;;;;;;;;5111751;28;20038;-65
2023/10/10 14:28:16;;;;;;;24.50;14.88;;;;;;;;;;5111659;28;20118;-65
2023/10/10 14:30:41;;;;;;;;;;;;;;;;;;5112476;28;20041;-65
2023/10/10 14:33:08;;;;;;;23.00;12.98;;;;;;;;;;5112060;28;20357;-65
2023/10/10 14:35:34;;;;;;;24.67;15.90;;;;;;;;;;5093550;28;20043;-65
2023/10/10 14:38:00;;;;;;;19.00;11.55;;;;;;;;;;5092493;28;20447;-65
2023/10/10 14:40:26;;;;;;;35.10;24.15;;;;;;;;;;5111037;28;20071;-65
2023/10/10 14:42:54;;;;;;;21.92;16.85;;;;;;;;;;5111161;28;20164;-65
2023/10/10 14:45:24;;;;;;;19.52;12.10;;;;;;;;;;5110513;28;20478;-65
2023/10/10 14:47:51;;;;;;;17.02;11.80;;;;;;;;;;5091843;28;20431;-65
2023/10/10 14:50:23;;;;;;;23.05;12.15;;;;;;;;;;5109743;28;20035;-65
2023/10/10 14:52:51;;;;;;;21.27;14.30;;;;;;;;;;5109978;28;20126;-65
2023/10/10 14:55:28;;;;;;;28.90;18.65;;;;;;;;;;5091736;28;20036;-66
2023/10/10 14:57:57;;;;;;;21.88;15.32;;;;;;;;;;5110420;28;20027;-65
2023/10/10 15:00:28;;;;;;;18.70;10.88;;;;;;;;;;5110635;28;20039;-65
2023/10/10 15:02:54;;;;;;;30.50;19.85;;;;;;;;;;5092781;28;20043;-65
2023/10/10 15:05:26;;;;;;;27.08;17.52;;;;;;;;;;5092746;28;20020;-65
2023/10/10 15:07:53;;;;;;;21.30;13.75;;;;;;;;;;5075470;28;20750;-65
2023/10/10 15:10:20;;;;;;;20.27;13.65;;;;;;;;;;5092099;28;20067;-65
2023/10/10 15:12:47;;;;;;;21.05;13.75;;;;;;;;;;5110342;28;20043;-65
2023/10/10 15:15:16;;;;;;;21.80;13.77;;;;;;;;;;5110763;28;20107;-65
2023/10/10 15:17:41;;;;;;;20.85;14.02;;;;;;;;;;5110263;28;20039;-65
2023/10/10 15:20:11;;;;;;;22.10;13.35;;;;;;;;;;5107232;28;20054;-65
2023/10/10 15:22:41;;;;;;;23.25;15.15;;;;;;;;;;5102578;28;20054;-65
2023/10/10 15:25:10;;;;;;;28.42;17.25;;;;;;;;;;5102300;28;20086;-65
2023/10/10 15:27:39;;;;;;;31.27;18.42;;;;;;;;;;5098514;28;20044;-65
2023/10/10 15:30:08;;;;;;;37.30;21.93;;;;;;;;;;5099849;28;20477;-65
2023/10/10 15:32:43;;;;;;;36.17;20.80;;;;;;;;;;5097861;28;20089;-65
2023/10/10 15:35:09;;;;;;;32.60;18.88;;;;;;;;;;5083633;28;20107;-66
2023/10/10 15:37:42;;;;;;;23.17;15.10;;;;;;;;;;5082239;28;20028;-65
2023/10/10 15:40:08;;;;;;;23.45;13.02;;;;;;;;;;5089354;28;20036;-65
2023/10/10 15:42:34;;;;;;;22.88;13.88;;;;;;;;;;5089648;28;20119;-65
2023/10/10 15:44:59;;;;;;;21.48;13.80;;;;;;;;;;5071723;28;20127;-66
2023/10/10 15:47:25;;;;;;;19.92;13.02;;;;;;;;;;5089797;28;20115;-65
2023/10/10 15:49:50;;;;;;;29.02;16.08;;;;;;;;;;5089269;28;20090;-65
2023/10/10 15:52:18;;;;;;;24.48;14.98;;;;;;;;;;5089840;28;20051;-65
2023/10/10 15:54:44;;;;;;;26.42;16.15;;;;;;;;;;5089809;28;20119;-65
2023/10/10 15:57:09;;;;;;;23.05;15.52;;;;;;;;;;5090537;28;20116;-65
2023/10/10 15:59:41;;;;;;;24.73;14.13;;;;;;;;;;5073656;28;20036;-65
2023/10/10 16:02:09;;;;;;;30.50;17.48;;;;;;;;;;5090264;28;20048;-65
2023/10/10 16:04:34;;;;;;;40.47;22.13;;;;;;;;;;5089041;28;20048;-65
2023/10/10 16:07:01;;;;;;;52.05;24.63;;;;;;;;;;5070424;28;20044;-65
2023/10/10 16:09:29;;;;;;;60.85;29.08;;;;;;;;;;5080274;28;20456;-65
2023/10/10 16:11:55;;;;;;;41.80;19.10;;;;;;;;;;5088992;28;20047;-64
2023/10/10 16:14:22;;;;;;;25.50;15.02;;;;;;;;;;5087366;28;20028;-65
2023/10/10 16:16:48;;;;;;;29.70;17.73;;;;;;;;;;5088748;28;20059;-65
2023/10/10 16:19:15;;;;;;;57.72;41.75;;;;;;;;;;5087902;28;20040;-64
2023/10/10 16:21:41;;;;;;;62.28;41.00;;;;;;;;;;5088821;28;20494;-64
2023/10/10 16:24:15;;;;;;;68.05;48.72;;;;;;;;;;5090264;28;20520;-64
2023/10/10 16:26:41;;;;;;;84.07;45.20;;;;;;;;;;5090021;28;20119;-60
2023/10/10 16:29:06;;;;;;;112.90;61.55;;;;;;;;;;5090610;28;20112;-61
2023/10/10 16:31:34;;;;;;;131.95;78.82;;;;;;;;;;5092221;28;20389;-66
2023/10/10 16:34:03;;;;;;;131.52;77.40;;;;;;;;;;5092009;28;20490;-66
2023/10/10 16:36:29;;;;;;;105.20;60.22;;;;;;;;;;5090777;28;20059;-66
2023/10/10 16:38:55;;;;;;;372.20;191.65;;;;;;;;;;5090539;28;20478;-67
2023/10/10 16:41:22;;;;;;;258.42;127.93;;;;;;;;;;5091082;28;20081;-66
2023/10/10 16:43:48;;;;;;;126.95;62.13;;;;;;;;;;5091175;28;20039;-66
2023/10/10 16:46:13;;;;;;;23.88;15.27;;;;;;;;;;5091579;28;20039;-66
2023/10/10 16:48:40;;;;;;;95.50;53.20;;;;;;;;;;5090999;28;20055;-66
2023/10/10 16:51:09;;;;;;;347.38;159.38;;;;;;;;;;5089717;28;20066;-66
2023/10/10 16:53:39;;;;;;;112.15;57.90;;;;;;;;;;5089085;28;20052;-66
2023/10/10 16:56:06;;;;;;;;;;;;;;;;;;5091429;28;20496;-67
2023/10/10 16:58:32;;;;;;;93.50;45.35;;;;;;;;;;5092063;28;19935;-65
2023/10/10 17:01:03;;;;;;;30.48;17.85;;;;;;;;;;5091823;28;20087;-65
2023/10/10 17:03:32;;;;;;;323.25;160.52;;;;;;;;;;5091690;28;20046;-65
2023/10/10 17:06:00;;;;;;;105.32;58.38;;;;;;;;;;5090058;28;20036;-65
2023/10/10 17:08:31;;;;;;;40.05;22.45;;;;;;;;;;5095672;28;20127;-65
2023/10/10 17:11:01;;;;;;;32.30;18.88;;;;;;;;;;5111620;28;20040;-65
2023/10/10 17:13:28;;;;;;;40.83;21.83;;;;;;;;;;5111639;28;20427;-65
2023/10/10 17:15:55;;;;;;;27.45;17.13;;;;;;;;;;5111769;28;20032;-65